Royal Clipper — 9HA2796 — position and weather

sailwx.info

Track history (hours):
 
Tides and Currents Weather Stations Pressure Air Temp Water Temp Dewpoint Dewpoint Depression Visibility Wind Speed Wind Dir Waves Ship Positions

Royal Clipper

Last reported at 2018-Jan-19 21:02 UTC. Time now 2018-Jan-21 00:34 UTC.
Position N 14°14' W 060°58'.

Length 137 m; draft 6 m.

Type: Ship. MMSI: 215813000.

Date/timePositionNaut miles runAvg speedWind from/ knotsBaromVisibWave heightAir tempDewpointWater temp
2018-Jan-19 21:02N 14°14' W 060°58'1 8.3
2018-Jan-19 20:53N 14°15' W 060°59'16 5.9
2018-Jan-19 18:10N 14°30' W 061°05'0 0.2
2018-Jan-19 18:00N 14°30' W 061°05'0 0.1
2018-Jan-19 17:21N 14°30' W 061°06'0 0.0
2018-Jan-19 16:51N 14°30' W 061°06'0 0.0
2018-Jan-19 16:21N 14°30' W 061°06'0 0.0
2018-Jan-19 15:48N 14°30' W 061°06'0 0.0
2018-Jan-19 14:30N 14°30' W 061°06'0 0.0
2018-Jan-19 13:12N 14°30' W 061°06'0 0.1
2018-Jan-19 12:02N 14°30' W 061°06'0 2.3
2018-Jan-19 12:00N 14°30' W 061°06'4 5.9
2018-Jan-19 11:20N 14°31' W 061°10'13 8.9
2018-Jan-19 09:53N 14°38' W 061°21'121 4.5
2018-Jan-18 06:49N 16°26' W 062°18'6 9.5
2018-Jan-18 06:11N 16°30' W 062°23'2 9.3
2018-Jan-18 06:00N 16°31' W 062°24'6 9.5
2018-Jan-18 05:25N 16°35' W 062°28'34 5.8
2018-Jan-17 23:30N 17°07' W 062°42'  
2018-Jan-12 05:40N 14°19' W 061°06'2 4.8
2018-Jan-12 05:18N 14°21' W 061°06'2 4.5
2018-Jan-12 04:58N 14°22' W 061°06'2 5.1
2018-Jan-12 04:30N 14°25' W 061°06'3 5.1
2018-Jan-12 04:00N 14°27' W 061°06'3 0.9
2018-Jan-12 00:32N 14°30' W 061°06'0 0.0
2018-Jan-12 00:27N 14°30' W 061°06'0 0.0
2018-Jan-11 17:06N 14°30' W 061°06'6 0.9
2018-Jan-11 10:50N 14°36' W 061°04'1 2.7
2018-Jan-11 10:28N 14°35' W 061°05'3 6.2
2018-Jan-11 09:58N 14°33' W 061°07'4 7.4
2018-Jan-11 09:29N 14°29' W 061°08'3 5.7
2018-Jan-11 09:00N 14°27' W 061°06'4 7.5
2018-Jan-11 08:30N 14°24' W 061°03'4 7.8
2018-Jan-11 08:00N 14°21' W 061°01'4 8.5
2018-Jan-11 07:30N 14°17' W 061°02'  
Track history (hours):
 
Tides and Currents Weather Stations Pressure Air Temp Water Temp Dewpoint Dewpoint Depression Visibility Wind Speed Wind Dir Waves Ship Positions

Royal Clipper

Last reported at 2018-Jan-19 21:02 UTC. Time now 2018-Jan-21 00:34 UTC.
Position N 14°14' W 060°58'.

Length 137 m; draft 6 m.

Type: Ship. MMSI: 215813000.

Date/timePositionNaut miles runAvg speedWind from/ knotsBaromVisibWave heightAir tempDewpointWater temp
2018-Jan-19 21:02N 14°14' W 060°58'1 8.3
2018-Jan-19 20:53N 14°15' W 060°59'16 5.9
2018-Jan-19 18:10N 14°30' W 061°05'0 0.2
2018-Jan-19 18:00N 14°30' W 061°05'0 0.1
2018-Jan-19 17:21N 14°30' W 061°06'0 0.0
2018-Jan-19 16:51N 14°30' W 061°06'0 0.0
2018-Jan-19 16:21N 14°30' W 061°06'0 0.0
2018-Jan-19 15:48N 14°30' W 061°06'0 0.0
2018-Jan-19 14:30N 14°30' W 061°06'0 0.0
2018-Jan-19 13:12N 14°30' W 061°06'0 0.1
2018-Jan-19 12:02N 14°30' W 061°06'0 2.3
2018-Jan-19 12:00N 14°30' W 061°06'4 5.9
2018-Jan-19 11:20N 14°31' W 061°10'13 8.9
2018-Jan-19 09:53N 14°38' W 061°21'121 4.5
2018-Jan-18 06:49N 16°26' W 062°18'6 9.5
2018-Jan-18 06:11N 16°30' W 062°23'2 9.3
2018-Jan-18 06:00N 16°31' W 062°24'6 9.5
2018-Jan-18 05:25N 16°35' W 062°28'34 5.8
2018-Jan-17 23:30N 17°07' W 062°42'  
2018-Jan-12 05:40N 14°19' W 061°06'2 4.8
2018-Jan-12 05:18N 14°21' W 061°06'2 4.5
2018-Jan-12 04:58N 14°22' W 061°06'2 5.1
2018-Jan-12 04:30N 14°25' W 061°06'3 5.1
2018-Jan-12 04:00N 14°27' W 061°06'3 0.9
2018-Jan-12 00:32N 14°30' W 061°06'0 0.0
2018-Jan-12 00:27N 14°30' W 061°06'0 0.0
2018-Jan-11 17:06N 14°30' W 061°06'6 0.9
2018-Jan-11 10:50N 14°36' W 061°04'1 2.7
2018-Jan-11 10:28N 14°35' W 061°05'3 6.2
2018-Jan-11 09:58N 14°33' W 061°07'4 7.4
2018-Jan-11 09:29N 14°29' W 061°08'3 5.7
2018-Jan-11 09:00N 14°27' W 061°06'4 7.5
2018-Jan-11 08:30N 14°24' W 061°03'4 7.8
2018-Jan-11 08:00N 14°21' W 061°01'4 8.5
2018-Jan-11 07:30N 14°17' W 061°02'  

Dump ship's entire track history